sensor_id;sensor_type;location;lat;lon;timestamp;pressure;altitude;pressure_sealevel;temperature;humidity
49813;BME280;35706;52.100;5.056;2023-12-28T00:00:54;100716.50;;;9.89;100.00
49813;BME280;35706;52.100;5.056;2023-12-28T00:01:54;100715.13;;;9.85;100.00
49813;BME280;35706;52.100;5.056;2023-12-28T00:02:54;100717.59;;;9.86;100.00
49813;BME280;35706;52.100;5.056;2023-12-28T00:03:55;100725.53;;;10.25;100.00
49813;BME280;35706;52.100;5.056;2023-12-28T00:04:55;100714.81;;;10.38;100.00
49813;BME280;35706;52.100;5.056;2023-12-28T00:05:55;100705.06;;;9.99;100.00
49813;BME280;35706;52.100;5.056;2023-12-28T00:06:56;100729.63;;;9.89;100.00
49813;BME280;35706;52.100;5.056;2023-12-28T00:07:56;100704.06;;;9.91;100.00
49813;BME280;35706;52.100;5.056;2023-12-28T00:08:57;100714.28;;;9.84;100.00
49813;BME280;35706;52.100;5.056;2023-12-28T00:10:00;100724.78;;;9.84;100.00
49813;BME280;35706;52.100;5.056;2023-12-28T00:11:00;100706.53;;;9.92;100.00
49813;BME280;35706;52.100;5.056;2023-12-28T00:12:01;100699.66;;;9.91;100.00
49813;BME280;35706;52.100;5.056;2023-12-28T00:13:01;100715.53;;;9.90;100.00
49813;BME280;35706;52.100;5.056;2023-12-28T00:14:02;100728.66;;;9.90;100.00
49813;BME280;35706;52.100;5.056;2023-12-28T00:15:02;100734.03;;;9.88;100.00
49813;BME280;35706;52.100;5.056;2023-12-28T00:16:03;100711.97;;;9.91;100.00
49813;BME280;35706;52.100;5.056;2023-12-28T00:17:04;100725.22;;;9.89;100.00
49813;BME280;35706;52.100;5.056;2023-12-28T00:18:04;100712.66;;;9.93;100.00
49813;BME280;35706;52.100;5.056;2023-12-28T00:19:04;100718.84;;;9.92;100.00
49813;BME280;35706;52.100;5.056;2023-12-28T00:20:05;100719.56;;;9.94;100.00
49813;BME280;35706;52.100;5.056;2023-12-28T00:21:06;100745.69;;;9.95;100.00
49813;BME280;35706;52.100;5.056;2023-12-28T00:22:06;100724.81;;;9.94;100.00
49813;BME280;35706;52.100;5.056;2023-12-28T00:23:06;100721.22;;;9.95;100.00
49813;BME280;35706;52.100;5.056;2023-12-28T00:24:07;100717.75;;;9.94;100.00
49813;BME280;35706;52.100;5.056;2023-12-28T00:25:07;100727.84;;;9.89;100.00
49813;BME280;35706;52.100;5.056;2023-12-28T00:26:08;100739.28;;;9.88;100.00
49813;BME280;35706;52.100;5.056;2023-12-28T00:27:08;100725.09;;;9.91;100.00
49813;BME280;35706;52.100;5.056;2023-12-28T00:28:08;100739.03;;;9.91;100.00
49813;BME280;35706;52.100;5.056;2023-12-28T00:29:09;100725.63;;;9.94;100.00
49813;BME280;35706;52.100;5.056;2023-12-28T00:30:09;100716.22;;;9.92;100.00
49813;BME280;35706;52.100;5.056;2023-12-28T00:31:10;100730.88;;;9.85;100.00
49813;BME280;35706;52.100;5.056;2023-12-28T00:32:10;100738.75;;;9.94;100.00
49813;BME280;35706;52.100;5.056;2023-12-28T00:33:11;100733.78;;;9.91;100.00
49813;BME280;35706;52.100;5.056;2023-12-28T00:34:11;100730.16;;;9.83;100.00
49813;BME280;35706;52.100;5.056;2023-12-28T00:35:11;100735.84;;;9.88;100.00
49813;BME280;35706;52.100;5.056;2023-12-28T00:36:12;100726.44;;;9.85;100.00
49813;BME280;35706;52.100;5.056;2023-12-28T00:37:12;100730.72;;;9.86;100.00
49813;BME280;35706;52.100;5.056;2023-12-28T00:38:12;100734.59;;;9.82;100.00
49813;BME280;35706;52.100;5.056;2023-12-28T00:39:13;100729.34;;;9.82;100.00
49813;BME280;35706;52.100;5.056;2023-12-28T00:40:15;100733.75;;;9.82;100.00
49813;BME280;35706;52.100;5.056;2023-12-28T00:41:15;100741.06;;;9.78;100.00
49813;BME280;35706;52.100;5.056;2023-12-28T00:42:17;100732.78;;;9.83;100.00
49813;BME280;35706;52.100;5.056;2023-12-28T00:43:18;100726.56;;;9.84;100.00
49813;BME280;35706;52.100;5.056;2023-12-28T00:44:18;100724.78;;;9.84;100.00
49813;BME280;35706;52.100;5.056;2023-12-28T00:45:19;100736.13;;;9.85;100.00
49813;BME280;35706;52.100;5.056;2023-12-28T00:46:19;100751.56;;;9.78;100.00
49813;BME280;35706;52.100;5.056;2023-12-28T00:47:19;100741.91;;;9.78;100.00
49813;BME280;35706;52.100;5.056;2023-12-28T00:48:20;100736.13;;;9.85;100.00
49813;BME280;35706;52.100;5.056;2023-12-28T00:49:20;100738.44;;;9.78;100.00
49813;BME280;35706;52.100;5.056;2023-12-28T00:50:20;100737.19;;;9.72;100.00
49813;BME280;35706;52.100;5.056;2023-12-28T00:51:21;100743.94;;;9.75;100.00
49813;BME280;35706;52.100;5.056;2023-12-28T00:52:21;100745.47;;;9.77;100.00
49813;BME280;35706;52.100;5.056;2023-12-28T00:53:21;100740.91;;;9.79;100.00
49813;BME280;35706;52.100;5.056;2023-12-28T00:54:22;100735.13;;;9.76;100.00
49813;BME280;35706;52.100;5.056;2023-12-28T00:55:22;100742.16;;;9.75;100.00
49813;BME280;35706;52.100;5.056;2023-12-28T00:56:22;100735.94;;;9.76;100.00
49813;BME280;35706;52.100;5.056;2023-12-28T00:57:23;100749.19;;;9.75;100.00
49813;BME280;35706;52.100;5.056;2023-12-28T00:58:23;100730.94;;;9.73;100.00
49813;BME280;35706;52.100;5.056;2023-12-28T00:59:23;100743.94;;;9.75;100.00
49813;BME280;35706;52.100;5.056;2023-12-28T01:00:24;100747.84;;;9.81;100.00
49813;BME280;35706;52.100;5.056;2023-12-28T01:01:24;100722.25;;;9.73;100.00
49813;BME280;35706;52.100;5.056;2023-12-28T01:02:25;100740.91;;;9.70;100.00
49813;BME280;35706;52.100;5.056;2023-12-28T01:03:25;100739.81;;;9.72;100.00
49813;BME280;35706;52.100;5.056;2023-12-28T01:04:26;100737.31;;;9.71;100.00
49813;BME280;35706;52.100;5.056;2023-12-28T01:05:26;100728.78;;;9.78;100.00
49813;BME280;35706;52.100;5.056;2023-12-28T01:06:28;100732.63;;;9.74;100.00
49813;BME280;35706;52.100;5.056;2023-12-28T01:07:28;100737.44;;;9.69;100.00
49813;BME280;35706;52.100;5.056;2023-12-28T01:08:29;100727.78;;;9.70;100.00
49813;BME280;35706;52.100;5.056;2023-12-28T01:09:30;100733.84;;;9.70;100.00
49813;BME280;35706;52.100;5.056;2023-12-28T01:10:30;100741.72;;;9.70;100.00
49813;BME280;35706;52.100;5.056;2023-12-28T01:11:30;100746.84;;;9.72;100.00
49813;BME280;35706;52.100;5.056;2023-12-28T01:12:31;100736.91;;;9.75;100.00
49813;BME280;35706;52.100;5.056;2023-12-28T01:13:31;100751.69;;;9.76;100.00
49813;BME280;35706;52.100;5.056;2023-12-28T01:14:32;100766.91;;;9.83;100.00
49813;BME280;35706;52.100;5.056;2023-12-28T01:15:32;100742.59;;;9.81;100.00
49813;BME280;35706;52.100;5.056;2023-12-28T01:16:32;100740.63;;;9.73;100.00
49813;BME280;35706;52.100;5.056;2023-12-28T01:17:33;100732.63;;;9.74;100.00
49813;BME280;35706;52.100;5.056;2023-12-28T01:18:33;100746.16;;;9.70;100.00
49813;BME280;35706;52.100;5.056;2023-12-28T01:19:33;100738.13;;;9.71;100.00
49813;BME280;35706;52.100;5.056;2023-12-28T01:20:34;100743.41;;;9.81;100.00
49813;BME280;35706;52.100;5.056;2023-12-28T01:21:35;100732.78;;;9.83;100.00
49813;BME280;35706;52.100;5.056;2023-12-28T01:22:35;100744.13;;;9.83;100.00
49813;BME280;35706;52.100;5.056;2023-12-28T01:23:36;100763.03;;;9.77;100.00
49813;BME280;35706;52.100;5.056;2023-12-28T01:24:36;100733.34;;;9.86;100.00
49813;BME280;35706;52.100;5.056;2023-12-28T01:25:36;100740.66;;;9.83;100.00
49813;BME280;35706;52.100;5.056;2023-12-28T01:26:37;100760.56;;;9.85;100.00
49813;BME280;35706;52.100;5.056;2023-12-28T01:27:37;100732.81;;;9.92;100.00
49813;BME280;35706;52.100;5.056;2023-12-28T01:28:37;100732.66;;;9.84;100.00
49813;BME280;35706;52.100;5.056;2023-12-28T01:29:38;100744.53;;;9.88;100.00
49813;BME280;35706;52.100;5.056;2023-12-28T01:30:38;100729.47;;;9.90;100.00
49813;BME280;35706;52.100;5.056;2023-12-28T01:31:38;100728.41;;;9.93;100.00
49813;BME280;35706;52.100;5.056;2023-12-28T01:32:39;100732.09;;;9.90;100.00
49813;BME280;35706;52.100;5.056;2023-12-28T01:33:40;100731.00;;;9.83;100.00
49813;BME280;35706;52.100;5.056;2023-12-28T01:34:40;100736.53;;;9.90;100.00
49813;BME280;35706;52.100;5.056;2023-12-28T01:35:42;100732.69;;;9.94;100.00
49813;BME280;35706;52.100;5.056;2023-12-28T01:36:42;100738.22;;;9.91;100.00
49813;BME280;35706;52.100;5.056;2023-12-28T01:37:44;100748.66;;;9.81;100.00
49813;BME280;35706;52.100;5.056;2023-12-28T01:38:45;100763.59;;;9.90;100.00
49813;BME280;35706;52.100;5.056;2023-12-28T01:39:45;100746.22;;;9.89;100.00
49813;BME280;35706;52.100;5.056;2023-12-28T01:40:46;100751.72;;;9.86;100.00
49813;BME280;35706;52.100;5.056;2023-12-28T01:41:46;100757.81;;;9.87;100.00
49813;BME280;35706;52.100;5.056;2023-12-28T01:42:46;100747.03;;;9.90;100.00
49813;BME280;35706;52.100;5.056;2023-12-28T01:43:47;100744.69;;;9.87;100.00
49813;BME280;35706;52.100;5.056;2023-12-28T01:44:47;100744.53;;;9.88;100.00
49813;BME280;35706;52.100;5.056;2023-12-28T01:45:47;100749.66;;;9.80;100.00
49813;BME280;35706;52.100;5.056;2023-12-28T01:46:48;100751.41;;;9.79;100.00
49813;BME280;35706;52.100;5.056;2023-12-28T01:47:50;100744.81;;;9.85;100.00
49813;BME280;35706;52.100;5.056;2023-12-28T01:48:52;100731.81;;;9.84;100.00
49813;BME280;35706;52.100;5.056;2023-12-28T01:49:53;100786.53;;;9.88;100.00
49813;BME280;35706;52.100;5.056;2023-12-28T01:50:54;100734.88;;;9.89;100.00
49813;BME280;35706;52.100;5.056;2023-12-28T01:51:55;100732.09;;;9.90;100.00
49813;BME280;35706;52.100;5.056;2023-12-28T01:52:56;100759.59;;;9.86;100.00
49813;BME280;35706;52.100;5.056;2023-12-28T01:53:58;100739.84;;;9.82;100.00
49813;BME280;35706;52.100;5.056;2023-12-28T01:55:00;100754.91;;;9.80;100.00
49813;BME280;35706;52.100;5.056;2023-12-28T01:56:00;100735.41;;;9.83;100.00
49813;BME280;35706;52.100;5.056;2023-12-28T01:57:01;100741.19;;;9.76;100.00
49813;BME280;35706;52.100;5.056;2023-12-28T01:58:03;100762.31;;;9.75;100.00
49813;BME280;35706;52.100;5.056;2023-12-28T01:59:04;100750.88;;;9.76;100.00
49813;BME280;35706;52.100;5.056;2023-12-28T02:00:04;100740.22;;;9.77;100.00
49813;BME280;35706;52.100;5.056;2023-12-28T02:01:05;100749.19;;;9.75;100.00
49813;BME280;35706;52.100;5.056;2023-12-28T02:02:07;100747.16;;;9.78;100.00
49813;BME280;35706;52.100;5.056;2023-12-28T02:03:07;100768.97;;;9.79;100.00
49813;BME280;35706;52.100;5.056;2023-12-28T02:04:08;100750.72;;;9.77;100.00
49813;BME280;35706;52.100;5.056;2023-12-28T02:05:11;100740.09;;;9.79;100.00
49813;BME280;35706;52.100;5.056;2023-12-28T02:06:15;100775.31;;;9.76;100.00
49813;BME280;35706;52.100;5.056;2023-12-28T02:07:20;100776.59;;;9.82;100.00
49813;BME280;35706;52.100;5.056;2023-12-28T02:08:21;100754.44;;;9.75;100.00
49813;BME280;35706;52.100;5.056;2023-12-28T02:09:22;100749.78;;;9.78;100.00
49813;BME280;35706;52.100;5.056;2023-12-28T02:10:22;100740.09;;;9.79;100.00
49813;BME280;35706;52.100;5.056;2023-12-28T02:11:22;100763.03;;;9.77;100.00
49813;BME280;35706;52.100;5.056;2023-12-28T02:12:23;100758.34;;;9.81;100.00
49813;BME280;35706;52.100;5.056;2023-12-28T02:13:24;100736.38;;;9.82;100.00
49813;BME280;35706;52.100;5.056;2023-12-28T02:14:25;100767.47;;;9.86;100.00
49813;BME280;35706;52.100;5.056;2023-12-28T02:15:25;100761.97;;;9.89;100.00
49813;BME280;35706;52.100;5.056;2023-12-28T02:16:33;100739.97;;;9.90;100.00
49813;BME280;35706;52.100;5.056;2023-12-28T02:17:39;100762.94;;;9.98;100.00
49813;BME280;35706;52.100;5.056;2023-12-28T02:18:49;100744.28;;;9.91;100.00
49813;BME280;35706;52.100;5.056;2023-12-28T02:19:52;100776.03;;;9.88;100.00
49813;BME280;35706;52.100;5.056;2023-12-28T02:20:54;100748.44;;;9.94;100.00
49813;BME280;35706;52.100;5.056;2023-12-28T02:21:54;100738.91;;;9.93;100.00
49813;BME280;35706;52.100;5.056;2023-12-28T02:22:56;100759.63;;;9.96;100.00
49813;BME280;35706;52.100;5.056;2023-12-28T02:23:56;100720.53;;;9.93;100.00
49813;BME280;35706;52.100;5.056;2023-12-28T02:25:09;100747.78;;;10.02;100.00
49813;BME280;35706;52.100;5.056;2023-12-28T02:26:11;100756.06;;;9.97;100.00
49813;BME280;35706;52.100;5.056;2023-12-28T02:27:12;100736.69;;;9.98;100.00
49813;BME280;35706;52.100;5.056;2023-12-28T02:28:12;100731.31;;;9.99;100.00
49813;BME280;35706;52.100;5.056;2023-12-28T02:29:12;100748.56;;;9.92;100.00
49813;BME280;35706;52.100;5.056;2023-12-28T02:30:15;100764.47;;;10.01;100.00
49813;BME280;35706;52.100;5.056;2023-12-28T02:31:37;100740.19;;;10.08;100.00
49813;BME280;35706;52.100;5.056;2023-12-28T02:34:04;100732.28;;;9.98;100.00
49813;BME280;35706;52.100;5.056;2023-12-28T02:35:16;100735.59;;;10.01;100.00
49813;BME280;35706;52.100;5.056;2023-12-28T02:36:18;100743.47;;;10.01;100.00
49813;BME280;35706;52.100;5.056;2023-12-28T02:37:23;100737.41;;;10.00;100.00
49813;BME280;35706;52.100;5.056;2023-12-28T02:38:25;100721.34;;;10.03;100.00
49813;BME280;35706;52.100;5.056;2023-12-28T02:39:29;100723.28;;;10.01;100.00
49813;BME280;35706;52.100;5.056;2023-12-28T02:40:36;100738.09;;;10.02;100.00
49813;BME280;35706;52.100;5.056;2023-12-28T02:41:42;100724.66;;;10.05;100.00
49813;BME280;35706;52.100;5.056;2023-12-28T02:42:43;100737.53;;;9.98;100.00
49813;BME280;35706;52.100;5.056;2023-12-28T02:43:43;100724.53;;;9.97;100.00
49813;BME280;35706;52.100;5.056;2023-12-28T02:44:44;100722.16;;;9.94;100.00
49813;BME280;35706;52.100;5.056;2023-12-28T02:45:44;100712.91;;;9.90;100.00
49813;BME280;35706;52.100;5.056;2023-12-28T02:46:45;100723.84;;;9.95;100.00
49813;BME280;35706;52.100;5.056;2023-12-28T02:47:45;100723.84;;;9.95;100.00
49813;BME280;35706;52.100;5.056;2023-12-28T02:48:46;100717.59;;;9.86;100.00
49813;BME280;35706;52.100;5.056;2023-12-28T02:49:46;100712.66;;;9.93;100.00
49813;BME280;35706;52.100;5.056;2023-12-28T02:50:46;100723.53;;;9.88;100.00
49813;BME280;35706;52.100;5.056;2023-12-28T02:51:47;100721.91;;;9.97;100.00
49813;BME280;35706;52.100;5.056;2023-12-28T02:52:47;100733.66;;;9.93;100.00
49813;BME280;35706;52.100;5.056;2023-12-28T02:53:48;100718.59;;;9.95;100.00
49813;BME280;35706;52.100;5.056;2023-12-28T02:54:48;100759.06;;;9.92;100.00
49813;BME280;35706;52.100;5.056;2023-12-28T02:55:48;100720.13;;;9.97;100.00
49813;BME280;35706;52.100;5.056;2023-12-28T02:56:48;100716.34;;;9.90;100.00
49813;BME280;35706;52.100;5.056;2023-12-28T02:57:54;100711.25;;;9.98;100.00
49813;BME280;35706;52.100;5.056;2023-12-28T02:58:55;100720.78;;;9.90;100.00
49813;BME280;35706;52.100;5.056;2023-12-28T02:59:55;100731.84;;;9.93;100.00
49813;BME280;35706;52.100;5.056;2023-12-28T03:00:57;100726.47;;;9.95;100.00
49813;BME280;35706;52.100;5.056;2023-12-28T03:01:57;100732.69;;;9.94;100.00
49813;BME280;35706;52.100;5.056;2023-12-28T03:02:57;100763.78;;;9.98;100.00
49813;BME280;35706;52.100;5.056;2023-12-28T03:03:58;100729.63;;;9.98;100.00
49813;BME280;35706;52.100;5.056;2023-12-28T03:04:58;100738.63;;;9.96;100.00
49813;BME280;35706;52.100;5.056;2023-12-28T03:05:58;100725.34;;;9.88;100.00
49813;BME280;35706;52.100;5.056;2023-12-28T03:06:59;100733.66;;;9.93;100.00
49813;BME280;35706;52.100;5.056;2023-12-28T03:07:59;100717.34;;;9.89;100.00
49813;BME280;35706;52.100;5.056;2023-12-28T03:08:59;100738.22;;;9.91;100.00
49813;BME280;35706;52.100;5.056;2023-12-28T03:10:00;100745.91;;;9.83;100.00
49813;BME280;35706;52.100;5.056;2023-12-28T03:11:01;100760.97;;;9.90;100.00
49813;BME280;35706;52.100;5.056;2023-12-28T03:12:01;100735.44;;;9.92;100.00
49813;BME280;35706;52.100;5.056;2023-12-28T03:13:02;100752.28;;;9.90;100.00
49813;BME280;35706;52.100;5.056;2023-12-28T03:14:02;100737.50;;;9.89;100.00
49813;BME280;35706;52.100;5.056;2023-12-28T03:15:04;100737.91;;;9.84;100.00
49813;BME280;35706;52.100;5.056;2023-12-28T03:16:04;100752.28;;;9.90;100.00
49813;BME280;35706;52.100;5.056;2023-12-28T03:17:05;100723.97;;;9.93;100.00
49813;BME280;35706;52.100;5.056;2023-12-28T03:18:05;100724.66;;;9.95;100.00
49813;BME280;35706;52.100;5.056;2023-12-28T03:19:06;100728.53;;;9.91;100.00
49813;BME280;35706;52.100;5.056;2023-12-28T03:20:06;100729.63;;;9.89;100.00
49813;BME280;35706;52.100;5.056;2023-12-28T03:21:07;100744.28;;;9.91;100.00
49813;BME280;35706;52.100;5.056;2023-12-28T03:22:07;100722.16;;;9.94;100.00
49813;BME280;35706;52.100;5.056;2023-12-28T03:23:07;100721.06;;;9.87;100.00
49813;BME280;35706;52.100;5.056;2023-12-28T03:24:08;100737.50;;;9.89;100.00
49813;BME280;35706;52.100;5.056;2023-12-28T03:25:09;100737.34;;;9.90;100.00
49813;BME280;35706;52.100;5.056;2023-12-28T03:26:09;100717.22;;;9.91;100.00
49813;BME280;35706;52.100;5.056;2023-12-28T03:27:09;100761.69;;;9.92;100.00
49813;BME280;35706;52.100;5.056;2023-12-28T03:28:10;100725.91;;;10.01;100.00
49813;BME280;35706;52.100;5.056;2023-12-28T03:29:10;100720.94;;;9.98;100.00
49813;BME280;35706;52.100;5.056;2023-12-28T03:30:11;100714.44;;;9.92;100.00
49813;BME280;35706;52.100;5.056;2023-12-28T03:31:11;100744.00;;;9.94;100.00
49813;BME280;35706;52.100;5.056;2023-12-28T03:32:11;100725.50;;;9.96;100.00
49813;BME280;35706;52.100;5.056;2023-12-28T03:33:12;100724.66;;;9.95;100.00
49813;BME280;35706;52.100;5.056;2023-12-28T03:34:13;100709.50;;;9.99;100.00
49813;BME280;35706;52.100;5.056;2023-12-28T03:35:13;100725.63;;;9.85;100.00
49813;BME280;35706;52.100;5.056;2023-12-28T03:36:20;100715.28;;;9.93;100.00
49813;BME280;35706;52.100;5.056;2023-12-28T03:37:21;100767.22;;;9.89;100.00
49813;BME280;35706;52.100;5.056;2023-12-28T03:38:21;100699.78;;;9.90;100.00
49813;BME280;35706;52.100;5.056;2023-12-28T03:39:21;100719.56;;;9.94;100.00
49813;BME280;35706;52.100;5.056;2023-12-28T03:40:22;100710.28;;;9.90;100.00
49813;BME280;35706;52.100;5.056;2023-12-28T03:41:22;100731.16;;;9.91;100.00
49813;BME280;35706;52.100;5.056;2023-12-28T03:42:22;100730.34;;;9.91;100.00
49813;BME280;35706;52.100;5.056;2023-12-28T03:43:23;100719.69;;;9.92;100.00
49813;BME280;35706;52.100;5.056;2023-12-28T03:44:23;100717.03;;;9.83;100.00
49813;BME280;35706;52.100;5.056;2023-12-28T03:45:23;100721.31;;;9.84;100.00
49813;BME280;35706;52.100;5.056;2023-12-28T03:46:24;100728.94;;;9.87;100.00
49813;BME280;35706;52.100;5.056;2023-12-28T03:47:24;100723.00;;;9.85;100.00
49813;BME280;35706;52.100;5.056;2023-12-28T03:48:24;100739.16;;;9.80;100.00
49813;BME280;35706;52.100;5.056;2023-12-28T03:49:25;100697.28;;;9.78;100.00
49813;BME280;35706;52.100;5.056;2023-12-28T03:50:25;100701.53;;;9.79;100.00
49813;BME280;35706;52.100;5.056;2023-12-28T03:51:25;100745.34;;;9.79;100.00
49813;BME280;35706;52.100;5.056;2023-12-28T03:52:26;100701.84;;;9.86;100.00
49813;BME280;35706;52.100;5.056;2023-12-28T03:53:27;100719.66;;;9.83;100.00
49813;BME280;35706;52.100;5.056;2023-12-28T03:54:27;100709.28;;;9.81;100.00
49813;BME280;35706;52.100;5.056;2023-12-28T03:55:27;100700.47;;;9.82;100.00
49813;BME280;35706;52.100;5.056;2023-12-28T03:56:28;100720.78;;;9.80;100.00
49813;BME280;35706;52.100;5.056;2023-12-28T03:57:28;100715.53;;;9.80;100.00
49813;BME280;35706;52.100;5.056;2023-12-28T03:58:28;100706.53;;;9.83;100.00
49813;BME280;35706;52.100;5.056;2023-12-28T03:59:29;100714.53;;;9.81;100.00
49813;BME280;35706;52.100;5.056;2023-12-28T04:00:29;100703.63;;;9.86;100.00
49813;BME280;35706;52.100;5.056;2023-12-28T04:01:29;100727.25;;;9.76;100.00
49813;BME280;35706;52.100;5.056;2023-12-28T04:02:30;100725.56;;;9.75;100.00
49813;BME280;35706;52.100;5.056;2023-12-28T04:03:31;100715.19;;;9.73;100.00
49813;BME280;35706;52.100;5.056;2023-12-28T04:04:32;100729.34;;;9.82;100.00
49813;BME280;35706;52.100;5.056;2023-12-28T04:05:32;100720.78;;;9.80;100.00
49813;BME280;35706;52.100;5.056;2023-12-28T04:06:32;100711.88;;;9.71;100.00
49813;BME280;35706;52.100;5.056;2023-12-28T04:07:33;100719.09;;;9.79;100.00
49813;BME280;35706;52.100;5.056;2023-12-28T04:08:33;100710.28;;;9.80;100.00
49813;BME280;35706;52.100;5.056;2023-12-28T04:09:34;100713.84;;;9.79;100.00
49813;BME280;35706;52.100;5.056;2023-12-28T04:10:34;100709.41;;;9.79;100.00
49813;BME280;35706;52.100;5.056;2023-12-28T04:11:37;100728.19;;;9.75;100.00
49813;BME280;35706;52.100;5.056;2023-12-28T04:12:38;100697.97;;;9.81;100.00
49813;BME280;35706;52.100;5.056;2023-12-28T04:13:38;100709.41;;;9.79;100.00
49813;BME280;35706;52.100;5.056;2023-12-28T04:14:39;100751.28;;;9.81;100.00
49813;BME280;35706;52.100;5.056;2023-12-28T04:15:41;100715.94;;;9.85;100.00
49813;BME280;35706;52.100;5.056;2023-12-28T04:16:43;100732.91;;;9.81;100.00
49813;BME280;35706;52.100;5.056;2023-12-28T04:17:43;100705.31;;;9.87;100.00
49813;BME280;35706;52.100;5.056;2023-12-28T04:18:45;100703.09;;;9.92;100.00
49813;BME280;35706;52.100;5.056;2023-12-28T04:19:45;100699.50;;;9.83;100.00
49813;BME280;35706;52.100;5.056;2023-12-28T04:20:46;100716.50;;;9.89;100.00
49813;BME280;35706;52.100;5.056;2023-12-28T04:21:46;100711.25;;;9.89;100.00
49813;BME280;35706;52.100;5.056;2023-12-28T04:22:46;100709.59;;;9.88;100.00
49813;BME280;35706;52.100;5.056;2023-12-28T04:23:47;100703.50;;;9.87;100.00
49813;BME280;35706;52.100;5.056;2023-12-28T04:24:48;100717.47;;;9.88;100.00
49813;BME280;35706;52.100;5.056;2023-12-28T04:25:48;100693.56;;;9.91;100.00
49813;BME280;35706;52.100;5.056;2023-12-28T04:26:48;100711.66;;;9.94;100.00
49813;BME280;35706;52.100;5.056;2023-12-28T04:27:49;100746.38;;;9.97;100.00
49813;BME280;35706;52.100;5.056;2023-12-28T04:28:49;100757.41;;;10.01;100.00
49813;BME280;35706;52.100;5.056;2023-12-28T04:29:50;100716.25;;;10.02;100.00
49813;BME280;35706;52.100;5.056;2023-12-28T04:30:50;100714.75;;;9.99;100.00
49813;BME280;35706;52.100;5.056;2023-12-28T04:31:51;100702.69;;;9.96;100.00
49813;BME280;35706;52.100;5.056;2023-12-28T04:32:51;100705.72;;;9.92;100.00
49813;BME280;35706;52.100;5.056;2023-12-28T04:33:51;100718.84;;;9.92;100.00
49813;BME280;35706;52.100;5.056;2023-12-28T04:34:52;100708.91;;;9.95;100.00
49813;BME280;35706;52.100;5.056;2023-12-28T04:35:52;100714.44;;;9.92;100.00
49813;BME280;35706;52.100;5.056;2023-12-28T04:36:52;100689.84;;;9.93;100.00
49813;BME280;35706;52.100;5.056;2023-12-28T04:37:53;100718.44;;;9.96;100.00
49813;BME280;35706;52.100;5.056;2023-12-28T04:38:53;100723.44;;;9.99;100.00
49813;BME280;35706;52.100;5.056;2023-12-28T04:39:54;100688.19;;;10.02;100.00
49813;BME280;35706;52.100;5.056;2023-12-28T04:40:54;100710.03;;;10.03;100.00
49813;BME280;35706;52.100;5.056;2023-12-28T04:41:54;100717.22;;;10.01;100.00
49813;BME280;35706;52.100;5.056;2023-12-28T04:42:55;100711.00;;;10.02;100.00
49813;BME280;35706;52.100;5.056;2023-12-28T04:43:55;100685.69;;;10.01;100.00
49813;BME280;35706;52.100;5.056;2023-12-28T04:44:56;100715.28;;;10.03;100.00
49813;BME280;35706;52.100;5.056;2023-12-28T04:45:56;100703.66;;;10.05;100.00
49813;BME280;35706;52.100;5.056;2023-12-28T04:46:56;100699.97;;;10.08;100.00
49813;BME280;35706;52.100;5.056;2023-12-28T04:47:57;100706.56;;;10.02;100.00
49813;BME280;35706;52.100;5.056;2023-12-28T04:48:57;100739.88;;;10.11;100.00
49813;BME280;35706;52.100;5.056;2023-12-28T04:49:57;100682.97;;;10.12;100.00
49813;BME280;35706;52.100;5.056;2023-12-28T04:50:58;100700.09;;;10.06;100.00
49813;BME280;35706;52.100;5.056;2023-12-28T04:51:58;100711.53;;;10.05;100.00
49813;BME280;35706;52.100;5.056;2023-12-28T04:53:00;100699.69;;;10.11;100.00
49813;BME280;35706;52.100;5.056;2023-12-28T04:54:00;100708.38;;;10.11;100.00
49813;BME280;35706;52.100;5.056;2023-12-28T04:55:00;100727.75;;;10.20;100.00
49813;BME280;35706;52.100;5.056;2023-12-28T04:56:01;100725.28;;;10.18;100.00
49813;BME280;35706;52.100;5.056;2023-12-28T04:57:01;100724.56;;;10.16;100.00
49813;BME280;35706;52.100;5.056;2023-12-28T04:58:02;100715.47;;;10.21;100.00
49813;BME280;35706;52.100;5.056;2023-12-28T04:59:02;100727.75;;;10.20;100.00
49813;BME280;35706;52.100;5.056;2023-12-28T05:00:03;100703.72;;;10.25;100.00
49813;BME280;35706;52.100;5.056;2023-12-28T05:01:04;100731.22;;;10.21;100.00
49813;BME280;35706;52.100;5.056;2023-12-28T05:02:04;100712.13;;;10.28;100.00
49813;BME280;35706;52.100;5.056;2023-12-28T05:03:05;100724.03;;;10.23;100.00
49813;BME280;35706;52.100;5.056;2023-12-28T05:04:05;100728.03;;;10.27;100.00
49813;BME280;35706;52.100;5.056;2023-12-28T05:05:06;100724.03;;;10.23;100.00
49813;BME280;35706;52.100;5.056;2023-12-28T05:06:08;100763.16;;;10.26;100.00
49813;BME280;35706;52.100;5.056;2023-12-28T05:07:08;100721.81;;;10.28;100.00
49813;BME280;35706;52.100;5.056;2023-12-28T05:08:09;100722.09;;;10.25;100.00
49813;BME280;35706;52.100;5.056;2023-12-28T05:09:09;100708.97;;;10.25;100.00
49813;BME280;35706;52.100;5.056;2023-12-28T05:10:10;100748.38;;;10.25;100.00
49813;BME280;35706;52.100;5.056;2023-12-28T05:11:10;100731.25;;;10.30;100.00
49813;BME280;35706;52.100;5.056;2023-12-28T05:12:10;100727.19;;;10.26;100.00
49813;BME280;35706;52.100;5.056;2023-12-28T05:13:11;100728.03;;;10.27;100.00
49813;BME280;35706;52.100;5.056;2023-12-28T05:14:11;100710.66;;;10.35;100.00
49813;BME280;35706;52.100;5.056;2023-12-28T05:15:11;100722.78;;;10.27;100.00
49813;BME280;35706;52.100;5.056;2023-12-28T05:16:12;100727.19;;;10.26;100.00
49813;BME280;35706;52.100;5.056;2023-12-28T05:17:12;100709.50;;;10.28;100.00
49813;BME280;35706;52.100;5.056;2023-12-28T05:18:12;100713.84;;;10.29;100.00
49813;BME280;35706;52.100;5.056;2023-12-28T05:19:13;100734.56;;;10.32;100.00